Time;durP1;ratioP1;P1;durP2;ratioP2;P2;SDS_P1;SDS_P2;PMS_P1;PMS_P2;Temp;Humidity;BMP_temperature;BMP_pressure;BME280_temperature;BME280_humidity;BME280_pressure;Samples;Min_cycle;Max_cycle;Signal;HPM_P1;HPM_P2
2021/10/11 00:02:13;;;;;;;9.70;8.73;;;;;16.60;99160.00;;;;5077057;28;20718;-89
2021/10/11 00:04:40;;;;;;;9.67;8.77;;;;;16.60;99157.00;;;;5060412;28;20198;-88
2021/10/11 00:07:08;;;;;;;9.27;8.37;;;;;16.60;99147.00;;;;5077114;28;20203;-88
2021/10/11 00:09:36;;;;;;;9.37;8.47;;;;;16.60;99144.00;;;;5077123;28;20202;-88
2021/10/11 00:12:04;;;;;;;8.77;7.97;;;;;16.60;99150.00;;;;5076969;28;20658;-89
2021/10/11 00:14:30;;;;;;;9.23;8.33;;;;;16.60;99162.00;;;;5094961;28;20187;-89
2021/10/11 00:16:57;;;;;;;8.83;8.03;;;;;16.50;99159.00;;;;5060227;28;20199;-89
2021/10/11 00:19:24;;;;;;;9.10;8.20;;;;;16.50;99149.00;;;;5077065;28;20193;-89
2021/10/11 00:21:50;;;;;;;9.30;8.40;;;;;16.50;99156.00;;;;5077078;28;20194;-88
2021/10/11 00:24:17;;;;;;;8.90;8.10;;;;;16.50;99151.00;;;;5060135;28;20206;-88
2021/10/11 00:26:43;;;;;;;8.60;7.90;;;;;16.50;99156.00;;;;5076768;28;20203;-88
2021/10/11 00:29:10;;;;;;;9.60;8.70;;;;;16.50;99153.00;;;;5060306;28;20208;-88
2021/10/11 00:31:36;;;;;;;8.60;7.80;;;;;16.50;99145.00;;;;5076999;28;20184;-88
2021/10/11 00:34:03;;;;;;;9.00;8.20;;;;;16.50;99154.00;;;;5094501;28;20638;-88
2021/10/11 00:36:29;;;;;;;8.90;8.10;;;;;16.50;99144.00;;;;5076782;28;20228;-88
2021/10/11 00:38:56;;;;;;;9.00;8.17;;;;;16.50;99155.00;;;;5059983;28;20205;-88
2021/10/11 00:41:27;;;;;;;8.73;7.97;;;;;16.50;99161.00;;;;5076732;28;20205;-88
2021/10/11 00:43:54;;;;;;;9.40;8.50;;;;;16.50;99152.00;;;;5060182;28;20506;-89
2021/10/11 00:46:21;;;;;;;8.90;8.00;;;;;16.50;99144.00;;;;5095946;28;20271;-89
2021/10/11 00:48:47;;;;;;;8.73;8.00;;;;;16.50;99154.00;;;;5080316;28;20502;-88
2021/10/11 00:51:14;;;;;;;8.30;7.60;;;;;16.50;99149.00;;;;5080883;28;20192;-88
2021/10/11 00:53:41;;;;;;;8.57;7.83;;;;;16.50;99152.00;;;;5080265;28;20190;-88
2021/10/11 00:56:08;;;;;;;9.47;8.63;;;;;16.50;99148.00;;;;5097999;28;20635;-88
2021/10/11 00:58:34;;;;;;;8.20;7.40;;;;;16.50;99145.00;;;;5080136;28;20536;-88
2021/10/11 01:01:01;;;;;;;8.30;7.50;;;;;16.50;99148.00;;;;5080016;28;20268;-88
2021/10/11 01:03:32;;;;;;;8.90;8.10;;;;;16.50;99148.00;;;;5064074;28;20226;-88
2021/10/11 01:05:58;;;;;;;7.60;6.90;;;;;16.50;99150.00;;;;5080637;28;20195;-88
2021/10/11 01:08:25;;;;;;;8.13;7.43;;;;;16.50;99132.00;;;;5080263;28;20659;-88
2021/10/11 01:10:52;;;;;;;8.70;7.90;;;;;16.40;99128.00;;;;5080446;28;20188;-88
2021/10/11 01:13:19;;;;;;;7.57;6.87;;;;;16.40;99147.00;;;;5079997;28;20202;-88
2021/10/11 01:15:45;;;;;;;8.50;7.70;;;;;16.40;99147.00;;;;5098420;28;20190;-88
2021/10/11 01:18:12;;;;;;;8.07;7.27;;;;;16.40;99120.00;;;;5063210;28;20230;-88
2021/10/11 01:20:38;;;;;;;8.20;7.50;;;;;16.40;99139.00;;;;5079988;28;20198;-88
2021/10/11 01:23:05;;;;;;;7.80;7.17;;;;;16.40;99128.00;;;;5063676;28;20214;-89
2021/10/11 01:25:32;;;;;;;8.27;7.57;;;;;16.40;99127.00;;;;5080197;28;20188;-88
2021/10/11 01:27:59;;;;;;;8.47;7.67;;;;;16.40;99120.00;;;;5079623;28;20195;-88
2021/10/11 01:30:25;;;;;;;7.50;6.90;;;;;16.40;99118.00;;;;5097398;28;20206;-88
2021/10/11 01:32:52;;;;;;;8.30;7.50;;;;;16.40;99120.00;;;;5062913;28;20207;-88
2021/10/11 01:35:19;;;;;;;8.00;7.30;;;;;16.40;99115.00;;;;5079659;28;20230;-88
2021/10/11 01:37:47;;;;;;;7.83;7.13;;;;;16.40;99108.00;;;;5079771;28;20208;-88
2021/10/11 01:40:15;;;;;;;8.07;7.30;;;;;16.40;99117.00;;;;5079727;28;20184;-88
2021/10/11 01:42:42;;;;;;;7.87;7.17;;;;;16.40;99116.00;;;;5079297;28;20199;-88
2021/10/11 01:45:10;;;;;;;7.93;7.23;;;;;16.40;99122.00;;;;5097327;28;20213;-88
2021/10/11 01:47:36;;;;;;;7.50;6.90;;;;;16.40;99122.00;;;;5079307;28;20195;-88
2021/10/11 01:50:04;;;;;;;7.80;7.10;;;;;16.40;99114.00;;;;5079748;28;20263;-88
2021/10/11 01:52:31;;;;;;;7.50;6.90;;;;;16.40;99111.00;;;;5079070;28;20568;-88
2021/10/11 01:54:57;;;;;;;7.90;7.20;;;;;16.40;99091.00;;;;5079244;28;20196;-88
2021/10/11 01:57:24;;;;;;;7.87;7.20;;;;;16.40;99103.00;;;;5061906;28;20219;-88
2021/10/11 01:59:50;;;;;;;7.80;7.03;;;;;16.30;99103.00;;;;5096688;28;20639;-88
2021/10/11 02:02:17;;;;;;;7.10;6.50;;;;;16.40;99100.00;;;;5062473;28;20199;-88
2021/10/11 02:04:43;;;;;;;7.60;6.90;;;;;16.40;99107.00;;;;5096702;28;20252;-88
2021/10/11 02:07:10;;;;;;;7.97;7.27;;;;;16.40;99093.00;;;;5078874;28;20613;-88
2021/10/11 02:09:36;;;;;;;7.70;7.00;;;;;16.30;99101.00;;;;5078786;28;20192;-88
2021/10/11 02:12:03;;;;;;;7.60;6.80;;;;;16.30;99103.00;;;;5079198;28;20196;-88
2021/10/11 02:14:30;;;;;;;7.40;6.80;;;;;16.30;99106.00;;;;5079246;28;20191;-88
2021/10/11 02:16:58;;;;;;;7.83;7.13;;;;;16.30;99111.00;;;;5061963;28;20201;-89
2021/10/11 02:19:25;;;;;;;8.43;7.50;;;;;16.30;99094.00;;;;5078624;28;20231;-88
2021/10/11 02:21:51;;;;;;;7.60;6.90;;;;;16.30;99112.00;;;;5078593;28;20194;-88
2021/10/11 02:24:18;;;;;;;7.60;6.90;;;;;16.30;99118.00;;;;5061944;28;20264;-88
2021/10/11 02:26:44;;;;;;;7.73;6.97;;;;;16.30;99114.00;;;;5061978;28;20275;-88
2021/10/11 02:29:11;;;;;;;8.30;7.50;;;;;16.30;99109.00;;;;5078383;28;20210;-88
2021/10/11 02:31:38;;;;;;;7.10;6.50;;;;;16.30;99107.00;;;;5062136;28;20192;-88
2021/10/11 02:34:04;;;;;;;7.57;6.87;;;;;16.30;99109.00;;;;5096129;28;20493;-88
2021/10/11 02:36:31;;;;;;;7.50;6.90;;;;;16.30;99115.00;;;;5078491;28;20199;-88
2021/10/11 02:39:01;;;;;;;7.20;6.60;;;;;16.30;99098.00;;;;5062771;28;20547;-88
2021/10/11 02:41:27;;;;;;;7.43;6.83;;;;;16.30;99099.00;;;;5078354;28;20188;-88
2021/10/11 02:43:54;;;;;;;7.00;6.43;;;;;16.30;99099.00;;;;5078231;28;20198;-88
2021/10/11 02:46:20;;;;;;;7.17;6.57;;;;;16.30;99107.00;;;;5061645;28;20192;-88
2021/10/11 02:48:47;;;;;;;7.13;6.53;;;;;16.20;99104.00;;;;5078136;28;20192;-88
2021/10/11 02:51:13;;;;;;;6.47;5.97;;;;;16.20;99113.00;;;;5095899;28;20197;-88
2021/10/11 02:53:40;;;;;;;6.67;6.07;;;;;16.20;99103.00;;;;5061357;28;20198;-88
2021/10/11 02:56:06;;;;;;;6.83;6.23;;;;;16.20;99100.00;;;;5061313;28;20658;-87
2021/10/11 02:58:33;;;;;;;7.27;6.57;;;;;16.20;99101.00;;;;5095845;28;20202;-88
2021/10/11 03:00:59;;;;;;;7.30;6.67;;;;;16.20;99087.00;;;;5061227;28;20724;-88
2021/10/11 03:03:26;;;;;;;6.30;5.80;;;;;16.20;99092.00;;;;5095930;28;20267;-87
2021/10/11 03:05:53;;;;;;;6.50;5.93;;;;;16.20;99089.00;;;;5077950;28;20576;-88
2021/10/11 03:08:19;;;;;;;7.13;6.53;;;;;16.20;99094.00;;;;5077937;28;20197;-88
2021/10/11 03:10:46;;;;;;;6.67;6.07;;;;;16.20;99082.00;;;;5077671;28;20190;-88
2021/10/11 03:13:12;;;;;;;7.10;6.40;;;;;16.20;99097.00;;;;5095431;28;20259;-88
2021/10/11 03:15:39;;;;;;;6.67;6.10;;;;;16.20;99103.00;;;;5077877;28;20308;-88
2021/10/11 03:18:05;;;;;;;7.60;6.90;;;;;16.20;99105.00;;;;5077745;28;20195;-88
2021/10/11 03:20:32;;;;;;;6.97;6.37;;;;;16.20;99099.00;;;;5077826;28;20193;-88
2021/10/11 03:22:59;;;;;;;6.70;6.10;;;;;16.20;99095.00;;;;5095474;28;20256;-88
2021/10/11 03:25:25;;;;;;;7.00;6.40;;;;;16.20;99090.00;;;;5077541;28;20196;-88
2021/10/11 03:27:52;;;;;;;6.93;6.33;;;;;16.20;99091.00;;;;5077607;28;20271;-88
2021/10/11 03:30:19;;;;;;;6.70;6.20;;;;;16.20;99093.00;;;;5077412;28;20217;-88
2021/10/11 03:32:45;;;;;;;6.90;6.20;;;;;16.10;99077.00;;;;5095150;28;20186;-88
2021/10/11 03:35:12;;;;;;;6.30;5.80;;;;;16.10;99078.00;;;;5060740;28;20253;-88
2021/10/11 03:37:38;;;;;;;7.50;6.80;;;;;16.10;99076.00;;;;5077687;28;20237;-88
2021/10/11 03:40:05;;;;;;;6.80;6.10;;;;;16.10;99070.00;;;;5060671;28;20199;-88
2021/10/11 03:42:32;;;;;;;7.27;6.67;;;;;16.10;99077.00;;;;5077473;28;20213;-88
2021/10/11 03:44:59;;;;;;;6.93;6.33;;;;;16.10;99063.00;;;;5060726;28;20186;-88
2021/10/11 03:47:25;;;;;;;7.03;6.33;;;;;16.10;99072.00;;;;5095163;28;20486;-88
2021/10/11 03:49:52;;;;;;;7.20;6.50;;;;;16.10;99066.00;;;;5077367;28;20694;-88
2021/10/11 03:52:18;;;;;;;7.03;6.43;;;;;16.10;99076.00;;;;5077092;28;20194;-88
2021/10/11 03:54:45;;;;;;;7.13;6.53;;;;;16.10;99078.00;;;;5094960;28;20190;-87
2021/10/11 03:57:11;;;;;;;7.20;6.57;;;;;16.10;99074.00;;;;5077245;28;20192;-87
2021/10/11 03:59:38;;;;;;;7.00;6.40;;;;;16.10;99070.00;;;;5060541;28;20193;-87
2021/10/11 04:02:04;;;;;;;7.13;6.53;;;;;16.10;99070.00;;;;5060514;28;20213;-87
2021/10/11 04:04:33;;;;;;;6.67;6.10;;;;;16.10;99072.00;;;;5078191;28;20248;-87
2021/10/11 04:07:06;;;;;;;6.53;6.00;;;;;16.10;99060.00;;;;5060468;28;20207;-88
2021/10/11 04:09:32;;;;;;;6.17;5.67;;;;;16.10;99073.00;;;;5077032;28;20187;-88
2021/10/11 04:12:06;;;;;;;6.57;6.07;;;;;16.00;99066.00;;;;5077370;28;20191;-87
2021/10/11 04:14:34;;;;;;;6.77;6.23;;;;;16.10;99071.00;;;;5060428;28;20202;-87
2021/10/11 04:17:01;;;;;;;7.03;6.33;;;;;16.10;99068.00;;;;5077810;28;20593;-87
2021/10/11 04:19:27;;;;;;;6.20;5.70;;;;;16.00;99077.00;;;;5076790;28;20245;-87
2021/10/11 04:21:54;;;;;;;6.43;5.93;;;;;16.00;99078.00;;;;5062581;28;20194;-87
2021/10/11 04:24:20;;;;;;;6.63;6.03;;;;;16.00;99082.00;;;;5064402;28;20681;-87
2021/10/11 04:26:47;;;;;;;6.60;6.00;;;;;16.00;99086.00;;;;5064294;28;20644;-87
2021/10/11 04:29:13;;;;;;;6.37;5.87;;;;;16.00;99074.00;;;;5080699;28;20229;-86
2021/10/11 04:31:40;;;;;;;6.80;6.20;;;;;16.00;99093.00;;;;5080748;28;20249;-87
2021/10/11 04:34:09;;;;;;;6.57;6.07;;;;;16.00;99089.00;;;;5064365;28;20202;-87
2021/10/11 04:36:36;;;;;;;6.47;5.97;;;;;16.00;99081.00;;;;5098787;28;20243;-87
2021/10/11 04:39:03;;;;;;;6.67;6.07;;;;;16.00;99083.00;;;;5098407;28;20233;-87
2021/10/11 04:41:29;;;;;;;7.03;6.40;;;;;16.00;99081.00;;;;5063982;28;20196;-87
2021/10/11 04:43:56;;;;;;;7.00;6.40;;;;;16.00;99085.00;;;;5080682;28;20184;-87
2021/10/11 04:46:23;;;;;;;6.50;6.00;;;;;16.00;99095.00;;;;5080357;28;20198;-87
2021/10/11 04:48:49;;;;;;;6.40;5.90;;;;;16.00;99102.00;;;;5063844;28;20188;-87
2021/10/11 04:51:16;;;;;;;6.40;5.90;;;;;16.00;99104.00;;;;5063779;28;20198;-87
2021/10/11 04:53:42;;;;;;;6.47;5.93;;;;;16.00;99112.00;;;;5063764;28;20586;-87
2021/10/11 04:56:09;;;;;;;7.00;6.40;;;;;16.00;99115.00;;;;5098118;28;20202;-87
2021/10/11 04:58:35;;;;;;;6.37;5.87;;;;;16.00;99114.00;;;;5080542;28;20263;-87
2021/10/11 05:01:02;;;;;;;6.10;5.60;;;;;16.00;99107.00;;;;5080342;28;20250;-87
2021/10/11 05:03:28;;;;;;;6.27;5.77;;;;;15.90;99090.00;;;;5080421;28;20191;-87
2021/10/11 05:05:55;;;;;;;6.07;5.60;;;;;16.00;99103.00;;;;5080347;28;20242;-87
2021/10/11 05:08:21;;;;;;;6.70;6.20;;;;;16.00;99086.00;;;;5098120;28;20184;-87
2021/10/11 05:10:48;;;;;;;6.60;6.00;;;;;16.00;99097.00;;;;5080145;28;20197;-87
2021/10/11 05:13:14;;;;;;;6.47;5.97;;;;;16.00;99092.00;;;;5080098;28;20188;-87
2021/10/11 05:15:41;;;;;;;6.00;5.50;;;;;16.00;99102.00;;;;5080433;28;20267;-87
2021/10/11 05:18:07;;;;;;;6.30;5.80;;;;;16.00;99090.00;;;;5079835;28;20227;-87
2021/10/11 05:20:36;;;;;;;6.10;5.60;;;;;16.00;99108.00;;;;5063748;28;20233;-87
2021/10/11 05:23:03;;;;;;;6.00;5.40;;;;;16.00;99105.00;;;;5063179;28;20209;-87
2021/10/11 05:25:30;;;;;;;6.30;5.80;;;;;16.00;99104.00;;;;5079882;28;20619;-87
2021/10/11 05:27:56;;;;;;;6.03;5.53;;;;;16.00;99105.00;;;;5080082;28;20529;-87
2021/10/11 05:30:23;;;;;;;6.17;5.67;;;;;16.00;99101.00;;;;5063021;28;20201;-87
2021/10/11 05:32:49;;;;;;;6.53;5.93;;;;;16.00;99101.00;;;;5078827;28;20188;-87
2021/10/11 05:35:16;;;;;;;6.60;6.10;;;;;16.00;99106.00;;;;5080058;28;20190;-87
2021/10/11 05:37:42;;;;;;;6.27;5.77;;;;;16.00;99109.00;;;;5062847;28;20204;-87
2021/10/11 05:40:09;;;;;;;6.43;5.93;;;;;16.10;99096.00;;;;5079628;28;20246;-87
2021/10/11 05:42:36;;;;;;;6.10;5.60;;;;;16.10;99094.00;;;;5062708;28;20197;-87
2021/10/11 05:45:03;;;;;;;6.00;5.50;;;;;16.20;99106.00;;;;5079391;28;20195;-87
2021/10/11 05:47:30;;;;;;;6.77;6.17;;;;;16.20;99099.00;;;;5097119;28;20192;-87
2021/10/11 05:49:56;;;;;;;6.07;5.57;;;;;16.30;99108.00;;;;5079565;28;20182;-87
2021/10/11 05:52:23;;;;;;;6.27;5.70;;;;;16.30;99109.00;;;;5079223;28;20202;-87
2021/10/11 05:54:49;;;;;;;6.87;6.27;;;;;16.30;99099.00;;;;5079149;28;20289;-87
2021/10/11 05:57:16;;;;;;;6.50;6.00;;;;;16.30;99104.00;;;;5062670;28;20207;-87
2021/10/11 05:59:42;;;;;;;6.20;5.70;;;;;16.30;99097.00;;;;5062343;28;20567;-87
2021/10/11 06:02:09;;;;;;;5.83;5.37;;;;;16.40;99114.00;;;;5079124;28;20253;-87
2021/10/11 06:04:35;;;;;;;5.80;5.27;;;;;16.40;99110.00;;;;5079344;28;20194;-86
2021/10/11 06:07:02;;;;;;;5.97;5.40;;;;;16.40;99111.00;;;;5079417;28;20266;-86
2021/10/11 06:09:28;;;;;;;5.63;5.23;;;;;16.40;99113.00;;;;5078775;28;20194;-87
2021/10/11 06:11:55;;;;;;;5.80;5.30;;;;;16.50;99122.00;;;;5097009;28;20200;-86
2021/10/11 06:14:22;;;;;;;5.70;5.20;;;;;16.60;99115.00;;;;5062170;28;20583;-86
2021/10/11 06:16:48;;;;;;;6.93;5.27;;;;;16.60;99110.00;;;;5096704;28;20244;-87
2021/10/11 06:19:15;;;;;;;6.47;5.90;;;;;16.60;99113.00;;;;5062016;28;20215;-87
2021/10/11 06:21:42;;;;;;;6.27;5.67;;;;;16.60;99120.00;;;;5077895;28;20203;-86
2021/10/11 06:24:11;;;;;;;5.60;5.10;;;;;16.60;99121.00;;;;5073205;28;20199;-87
2021/10/11 06:26:38;;;;;;;6.20;5.63;;;;;16.70;99122.00;;;;5067732;28;20195;-87
2021/10/11 06:29:04;;;;;;;6.40;5.40;;;;;16.70;99126.00;;;;5052474;28;20179;-87
2021/10/11 06:31:31;;;;;;;5.33;4.93;;;;;16.70;99119.00;;;;5066344;28;20626;-87
2021/10/11 06:33:57;;;;;;;5.70;5.20;;;;;16.80;99120.00;;;;5068820;28;20548;-87
2021/10/11 06:36:26;;;;;;;5.80;5.30;;;;;16.80;99128.00;;;;5067117;28;20248;-87
2021/10/11 06:38:52;;;;;;;5.80;5.30;;;;;16.70;99130.00;;;;5075935;28;20213;-87
2021/10/11 06:41:19;;;;;;;6.57;5.90;;;;;16.70;99144.00;;;;5066742;28;20190;-87
2021/10/11 06:43:46;;;;;;;5.93;5.43;;;;;16.70;99144.00;;;;5060688;28;20193;-87
2021/10/11 06:46:12;;;;;;;6.43;5.70;;;;;16.70;99137.00;;;;5075470;28;20518;-87
2021/10/11 06:48:39;;;;;;;6.07;5.57;;;;;16.70;99147.00;;;;5057871;28;20205;-87
2021/10/11 06:51:06;;;;;;;5.93;5.30;;;;;16.70;99139.00;;;;5058025;28;20598;-87
2021/10/11 06:53:33;;;;;;;5.80;5.30;;;;;16.70;99147.00;;;;5057994;28;20199;-87
2021/10/11 06:55:59;;;;;;;5.73;5.23;;;;;16.70;99151.00;;;;5057978;28;20265;-87
2021/10/11 06:58:26;;;;;;;5.37;4.97;;;;;16.70;99145.00;;;;5060863;28;20552;-87
2021/10/11 07:00:52;;;;;;;5.70;5.23;;;;;16.60;99147.00;;;;5068170;28;20206;-87
2021/10/11 07:03:25;;;;;;;5.93;5.53;;;;;16.70;99152.00;;;;5085597;28;20216;-86
2021/10/11 07:06:00;;;;;;;5.70;5.20;;;;;16.60;99153.00;;;;5093328;28;20184;-87
2021/10/11 07:08:27;;;;;;;5.90;5.40;;;;;16.60;99152.00;;;;5077952;28;20201;-87
2021/10/11 07:10:54;;;;;;;6.47;5.87;;;;;16.70;99163.00;;;;5061252;28;20192;-87
2021/10/11 07:13:22;;;;;;;6.70;6.10;;;;;16.70;99161.00;;;;5077920;28;20183;-87
2021/10/11 07:15:49;;;;;;;5.77;5.27;;;;;16.70;99140.00;;;;5078519;28;20205;-87
2021/10/11 07:18:16;;;;;;;5.70;5.20;;;;;16.70;99150.00;;;;5077670;28;20194;-87
2021/10/11 07:20:44;;;;;;;6.30;5.70;;;;;16.70;99155.00;;;;5095482;28;20199;-87
2021/10/11 07:23:12;;;;;;;6.13;5.40;;;;;16.60;99159.00;;;;5077397;28;20210;-87
2021/10/11 07:25:40;;;;;;;5.70;5.20;;;;;16.60;99165.00;;;;5077857;28;20191;-87
2021/10/11 07:28:07;;;;;;;7.27;5.77;;;;;16.60;99172.00;;;;5078293;28;20192;-87
2021/10/11 07:30:35;;;;;;;7.93;5.53;;;;;16.60;99170.00;;;;5077924;28;20198;-87
2021/10/11 07:33:03;;;;;;;5.67;5.20;;;;;16.60;99165.00;;;;5095557;28;20186;-87
2021/10/11 07:35:29;;;;;;;5.30;4.90;;;;;16.70;99167.00;;;;5077782;28;20195;-87
2021/10/11 07:38:01;;;;;;;5.73;5.10;;;;;16.70;99172.00;;;;5095226;28;20611;-87
2021/10/11 07:40:46;;;;;;;6.27;5.77;;;;;16.70;99167.00;;;;5080584;28;20187;-87
2021/10/11 07:43:12;;;;;;;5.47;5.07;;;;;16.70;99180.00;;;;5077827;28;20537;-87
2021/10/11 07:45:39;;;;;;;6.00;5.40;;;;;16.70;99164.00;;;;5077434;28;20214;-87
2021/10/11 07:48:06;;;;;;;5.90;5.50;;;;;16.70;99174.00;;;;5095008;28;20180;-87
2021/10/11 07:50:33;;;;;;;5.60;4.80;;;;;16.70;99188.00;;;;5077334;28;20211;-87
2021/10/11 07:53:00;;;;;;;6.00;5.50;;;;;16.70;99186.00;;;;5077765;28;20190;-87
2021/10/11 07:55:26;;;;;;;5.33;4.93;;;;;16.70;99172.00;;;;5077301;28;20180;-87
2021/10/11 07:57:53;;;;;;;6.83;5.20;;;;;16.70;99173.00;;;;5077234;28;20323;-88
2021/10/11 08:00:24;;;;;;;5.40;5.00;;;;;16.70;99178.00;;;;5078040;28;20203;-87
2021/10/11 08:02:51;;;;;;;5.63;5.17;;;;;16.80;99187.00;;;;5077248;28;20199;-87
2021/10/11 08:05:18;;;;;;;5.40;4.90;;;;;16.80;99180.00;;;;5077088;28;20203;-88
2021/10/11 08:07:45;;;;;;;5.30;4.90;;;;;16.80;99178.00;;;;5060631;28;20203;-87
2021/10/11 08:10:12;;;;;;;5.17;4.77;;;;;16.80;99177.00;;;;5077082;28;20363;-87
2021/10/11 08:12:39;;;;;;;5.80;5.30;;;;;16.80;99172.00;;;;5077315;28;20212;-88
2021/10/11 08:15:07;;;;;;;5.63;5.13;;;;;16.80;99157.00;;;;5077332;28;20182;-88
2021/10/11 08:17:33;;;;;;;5.80;5.27;;;;;16.80;99160.00;;;;5060537;28;20196;-88
2021/10/11 08:20:00;;;;;;;5.63;5.13;;;;;16.80;99164.00;;;;5060370;28;20215;-87
2021/10/11 08:22:26;;;;;;;5.53;5.03;;;;;16.80;99168.00;;;;5060554;28;20247;-88
2021/10/11 08:24:53;;;;;;;5.67;5.17;;;;;16.80;99173.00;;;;5076952;28;20195;-88
2021/10/11 08:27:19;;;;;;;5.50;5.00;;;;;16.80;99174.00;;;;5077213;28;20187;-88
2021/10/11 08:29:52;;;;;;;5.40;5.00;;;;;16.80;99175.00;;;;5076978;28;20184;-88
2021/10/11 08:32:20;;;;;;;5.63;5.20;;;;;16.80;99185.00;;;;5060400;28;20229;-88
2021/10/11 08:34:46;;;;;;;5.47;5.07;;;;;16.80;99183.00;;;;5060268;28;20191;-88
2021/10/11 08:37:13;;;;;;;5.37;4.97;;;;;16.80;99189.00;;;;5076822;28;20203;-88
2021/10/11 08:39:41;;;;;;;5.50;5.10;;;;;16.80;99184.00;;;;5076702;28;20215;-87
2021/10/11 08:42:09;;;;;;;5.33;4.93;;;;;16.80;99183.00;;;;5060223;28;20573;-88
2021/10/11 08:44:35;;;;;;;5.17;4.77;;;;;16.80;99170.00;;;;5094615;28;20199;-88
2021/10/11 08:47:02;;;;;;;5.23;4.83;;;;;16.80;99193.00;;;;5094550;28;20190;-88
2021/10/11 08:49:29;;;;;;;5.43;4.93;;;;;16.80;99184.00;;;;5076794;28;20632;-88
2021/10/11 08:51:56;;;;;;;5.80;5.30;;;;;16.80;99192.00;;;;5076722;28;20209;-88
2021/10/11 08:54:23;;;;;;;5.60;5.20;;;;;16.80;99197.00;;;;5076702;28;20257;-87
2021/10/11 08:56:49;;;;;;;5.20;4.80;;;;;16.80;99209.00;;;;5094761;28;20196;-88
2021/10/11 08:59:28;;;;;;;5.20;4.80;;;;;16.70;99201.00;;;;5060008;28;20218;-87
2021/10/11 09:02:10;;;;;;;5.23;4.83;;;;;16.70;99200.00;;;;5077058;28;20512;-87
2021/10/11 09:04:56;;;;;;;5.40;4.90;;;;;16.60;99205.00;;;;5077660;28;20185;-88
2021/10/11 09:07:25;;;;;;;5.10;4.70;;;;;16.60;99203.00;;;;5095670;28;20173;-88
2021/10/11 09:09:53;;;;;;;5.47;5.07;;;;;16.60;99212.00;;;;5080136;28;20191;-88
2021/10/11 09:12:25;;;;;;;5.33;4.93;;;;;16.60;99208.00;;;;5080082;28;20537;-88
2021/10/11 09:15:02;;;;;;;5.07;4.67;;;;;16.50;99212.00;;;;5080729;28;20180;-88
2021/10/11 09:17:32;;;;;;;5.53;5.03;;;;;16.50;99200.00;;;;5063398;28;20188;-89
2021/10/11 09:20:14;;;;;;;5.90;5.40;;;;;16.40;99208.00;;;;5080161;28;20222;-88
2021/10/11 09:22:43;;;;;;;5.67;5.27;;;;;16.40;99199.00;;;;5080256;28;20562;-88
2021/10/11 09:25:11;;;;;;;5.37;4.97;;;;;16.40;99197.00;;;;5080097;28;20236;-88
2021/10/11 09:27:49;;;;;;;5.00;4.60;;;;;16.30;99196.00;;;;5079888;28;20195;-88
2021/10/11 09:30:27;;;;;;;5.20;4.80;;;;;16.30;99184.00;;;;5079817;28;20190;-88
2021/10/11 09:33:10;;;;;;;5.43;5.03;;;;;16.30;99178.00;;;;5080000;28;20589;-88
2021/10/11 09:35:39;;;;;;;5.33;4.93;;;;;16.30;99182.00;;;;5079730;28;20195;-88
2021/10/11 09:38:23;;;;;;;5.63;5.13;;;;;16.30;99183.00;;;;5097663;28;20190;-88
2021/10/11 09:40:56;;;;;;;5.27;4.87;;;;;16.20;99188.00;;;;5063037;28;20215;-88
2021/10/11 09:43:27;;;;;;;5.17;4.77;;;;;16.20;99190.00;;;;5079682;28;20219;-88
2021/10/11 09:45:55;;;;;;;5.67;5.17;;;;;16.20;99189.00;;;;5062903;28;20199;-88
2021/10/11 09:48:22;;;;;;;5.73;5.23;;;;;16.20;99184.00;;;;5079644;28;20658;-88
2021/10/11 09:50:49;;;;;;;5.23;4.83;;;;;16.20;99179.00;;;;5079659;28;20214;-88
2021/10/11 09:53:17;;;;;;;5.30;4.90;;;;;16.20;99202.00;;;;5079341;28;20199;-88
2021/10/11 09:55:44;;;;;;;5.77;5.27;;;;;16.20;99203.00;;;;5097084;28;20186;-88
2021/10/11 09:58:12;;;;;;;5.37;4.97;;;;;16.10;99201.00;;;;5062720;28;20224;-88
2021/10/11 10:00:41;;;;;;;5.30;4.90;;;;;16.10;99202.00;;;;5096850;28;20267;-87
2021/10/11 10:03:13;;;;;;;5.10;4.77;;;;;16.10;99202.00;;;;5079094;28;20252;-87
2021/10/11 10:05:49;;;;;;;5.30;4.90;;;;;16.10;99193.00;;;;5062671;28;20526;-88
2021/10/11 10:08:26;;;;;;;5.30;4.90;;;;;16.10;99195.00;;;;5096900;28;20180;-87
2021/10/11 10:11:01;;;;;;;5.03;4.63;;;;;16.10;99191.00;;;;5062453;28;20249;-87
2021/10/11 10:13:28;;;;;;;5.50;5.10;;;;;16.10;99192.00;;;;5079004;28;20193;-88
2021/10/11 10:16:07;;;;;;;5.07;4.67;;;;;16.10;99196.00;;;;5080762;28;20509;-88
2021/10/11 10:18:38;;;;;;;5.20;4.80;;;;;16.00;99184.00;;;;5078606;28;20178;-88
2021/10/11 10:21:06;;;;;;;4.93;4.57;;;;;16.00;99180.00;;;;5078769;28;20510;-88
2021/10/11 10:23:38;;;;;;;5.50;5.00;;;;;16.10;99174.00;;;;5079691;28;20214;-88
2021/10/11 10:26:07;;;;;;;5.40;5.00;;;;;16.10;99169.00;;;;5079215;28;20182;-88
2021/10/11 10:28:45;;;;;;;5.10;4.70;;;;;16.10;99165.00;;;;5062019;28;20190;-88
2021/10/11 10:31:36;;;;;;;5.17;4.77;;;;;16.10;99172.00;;;;5079587;28;20176;-88
2021/10/11 10:34:23;;;;;;;5.20;4.80;;;;;16.10;99176.00;;;;5078637;28;20202;-88
2021/10/11 10:37:24;;;;;;;5.20;4.80;;;;;16.10;99175.00;;;;5079034;28;20328;-88
2021/10/11 10:39:52;;;;;;;5.50;5.10;;;;;16.10;99174.00;;;;5093421;28;20230;-88
2021/10/11 10:42:26;;;;;;;5.47;5.07;;;;;16.10;99183.00;;;;5078615;28;20190;-89
2021/10/11 10:44:54;;;;;;;5.00;4.60;;;;;16.10;99182.00;;;;5078482;28;20193;-88
2021/10/11 10:47:38;;;;;;;5.03;4.63;;;;;16.20;99172.00;;;;5079230;28;20529;-88
2021/10/11 10:50:15;;;;;;;5.33;4.87;;;;;16.20;99167.00;;;;5078184;28;20198;-88
2021/10/11 10:52:46;;;;;;;5.43;5.03;;;;;16.20;99167.00;;;;5061658;28;20189;-88
2021/10/11 10:55:13;;;;;;;4.80;4.40;;;;;16.20;99158.00;;;;5078167;28;20538;-88
2021/10/11 10:57:41;;;;;;;4.83;4.53;;;;;16.20;99171.00;;;;5095939;28;20208;-89
2021/10/11 11:00:18;;;;;;;4.90;4.50;;;;;16.20;99170.00;;;;5078459;28;20288;-88
2021/10/11 11:02:50;;;;;;;5.10;4.70;;;;;16.20;99155.00;;;;5078095;28;20602;-88
2021/10/11 11:05:19;;;;;;;5.57;4.90;;;;;16.30;99149.00;;;;5078404;28;20277;-89
2021/10/11 11:07:50;;;;;;;4.93;4.60;;;;;16.30;99159.00;;;;5078491;28;20190;-89
2021/10/11 11:10:25;;;;;;;5.47;5.07;;;;;16.30;99159.00;;;;5078410;28;20206;-89
2021/10/11 11:13:00;;;;;;;5.00;4.60;;;;;16.40;99159.00;;;;5063680;28;20184;-89
2021/10/11 11:15:33;;;;;;;4.80;4.43;;;;;16.40;99156.00;;;;5064190;28;20196;-89
2021/10/11 11:18:09;;;;;;;5.43;5.03;;;;;16.40;99161.00;;;;5079061;28;20606;-89
2021/10/11 11:20:39;;;;;;;5.00;4.60;;;;;16.50;99161.00;;;;5061880;28;20643;-90
2021/10/11 11:23:14;;;;;;;4.97;4.67;;;;;16.50;99152.00;;;;5078305;28;20213;-89
2021/10/11 11:25:44;;;;;;;5.20;4.80;;;;;16.50;99142.00;;;;5061291;28;20205;-90
2021/10/11 11:28:13;;;;;;;5.23;4.83;;;;;16.50;99143.00;;;;5078030;28;20182;-90
2021/10/11 11:30:40;;;;;;;4.60;4.30;;;;;16.60;99145.00;;;;5094969;28;20241;-90
2021/10/11 11:33:09;;;;;;;5.03;4.67;;;;;16.60;99143.00;;;;5077871;28;20199;-90
2021/10/11 11:35:42;;;;;;;5.00;4.60;;;;;16.60;99137.00;;;;5095725;28;20193;-90
2021/10/11 11:38:11;;;;;;;5.30;4.83;;;;;16.60;99125.00;;;;5078376;28;20198;-90
2021/10/11 11:40:46;;;;;;;4.47;4.17;;;;;16.60;99125.00;;;;5078218;28;20237;-91
2021/10/11 11:43:12;;;;;;;5.10;4.70;;;;;16.60;99131.00;;;;5078175;28;20187;-92
2021/10/11 11:45:45;;;;;;;4.80;4.40;;;;;16.60;99138.00;;;;5060859;28;20196;-91
2021/10/11 11:48:18;;;;;;;4.80;4.50;;;;;16.60;99138.00;;;;5077441;28;20233;-90
2021/10/11 11:50:53;;;;;;;4.83;4.43;;;;;16.60;99128.00;;;;5060689;28;20188;-91
2021/10/11 11:53:22;;;;;;;5.00;4.50;;;;;16.50;99127.00;;;;5077180;28;20189;-91
2021/10/11 11:55:52;;;;;;;4.33;4.03;;;;;16.50;99118.00;;;;5060599;28;20198;-90
2021/10/11 11:58:26;;;;;;;4.80;4.50;;;;;16.50;99118.00;;;;5077390;28;20191;-91
2021/10/11 12:00:57;;;;;;;4.27;3.97;;;;;16.60;99123.00;;;;5077085;28;20276;-91
2021/10/11 12:03:27;;;;;;;5.37;4.97;;;;;16.60;99126.00;;;;5077101;28;20602;-90
2021/10/11 12:05:55;;;;;;;5.07;4.67;;;;;16.60;99103.00;;;;5077533;28;20612;-90
2021/10/11 12:08:22;;;;;;;5.67;5.10;;;;;16.70;99109.00;;;;5077130;28;20202;-90
2021/10/11 12:11:18;;;;;;;4.83;4.53;;;;;16.70;99121.00;;;;5077304;28;20617;-89
2021/10/11 12:13:44;;;;;;;5.30;4.90;;;;;16.60;99114.00;;;;5075999;28;20207;-90
2021/10/11 12:16:19;;;;;;;4.70;4.30;;;;;16.60;99108.00;;;;5060395;28;20211;-90
2021/10/11 12:18:49;;;;;;;4.80;4.50;;;;;16.60;99114.00;;;;5076988;28;20202;-90
2021/10/11 12:21:20;;;;;;;5.40;4.90;;;;;16.60;99121.00;;;;5060368;28;20218;-89
2021/10/11 12:23:47;;;;;;;5.23;4.83;;;;;16.60;99120.00;;;;5060583;28;20210;-90
2021/10/11 12:26:13;;;;;;;5.23;4.73;;;;;16.50;99111.00;;;;5076931;28;20198;-90